createdAt,value
2023-01-17T00:04:54.752Z,8.86
2023-01-17T00:09:58.736Z,9.25
2023-01-17T00:15:00.588Z,8.47
2023-01-17T00:20:02.110Z,7.81
2023-01-17T00:25:03.694Z,7.67
2023-01-17T00:30:05.761Z,8.15
2023-01-17T00:35:07.574Z,8.42
2023-01-17T00:40:10.282Z,7.96
2023-01-17T00:45:11.779Z,8.09
2023-01-17T00:50:13.278Z,7.81
2023-01-17T00:55:14.847Z,8.18
2023-01-17T01:00:18.686Z,7.98
2023-01-17T01:05:20.810Z,8.45
2023-01-17T01:10:22.484Z,8.69
2023-01-17T01:15:24.007Z,8.35
2023-01-17T01:20:25.637Z,8.58
2023-01-17T01:25:27.151Z,9.12
2023-01-17T01:30:28.747Z,8.72
2023-01-17T01:35:30.240Z,8.89
2023-01-17T01:40:31.744Z,9.18
2023-01-17T01:45:33.397Z,8.70
2023-01-17T01:50:36.811Z,8.79
2023-01-17T01:55:41.599Z,8.95
2023-01-17T02:00:43.194Z,9.03
2023-01-17T02:05:45.119Z,9.03
2023-01-17T02:10:46.970Z,9.06
2023-01-17T02:16:02.792Z,8.97
2023-01-17T02:21:13.086Z,8.54
2023-01-17T02:26:47.541Z,8.29
2023-01-17T02:32:04.897Z,7.99
2023-01-17T02:37:15.082Z,8.65
2023-01-17T02:42:20.346Z,8.46
2023-01-17T02:47:29.077Z,8.63
2023-01-17T02:53:09.454Z,8.30
2023-01-17T02:58:41.012Z,8.07
2023-01-17T03:03:52.636Z,7.92
2023-01-17T03:08:54.424Z,7.74
2023-01-17T03:13:57.304Z,8.28
2023-01-17T03:18:58.773Z,8.00
2023-01-17T03:24:00.290Z,8.44
2023-01-17T03:29:02.132Z,7.92
2023-01-17T03:34:03.698Z,7.87
2023-01-17T03:39:05.200Z,7.91
2023-01-17T03:44:06.733Z,7.91
2023-01-17T03:49:09.454Z,7.39
2023-01-17T03:54:10.972Z,7.83
2023-01-17T03:59:13.363Z,7.58
2023-01-17T04:04:14.948Z,8.06
2023-01-17T04:09:16.478Z,7.72
2023-01-17T04:14:17.999Z,7.56
2023-01-17T04:19:19.894Z,7.65
2023-01-17T04:24:21.386Z,7.37
2023-01-17T04:29:22.958Z,7.05
2023-01-17T04:34:24.613Z,7.32
2023-01-17T04:39:26.176Z,7.32
2023-01-17T04:44:27.716Z,7.48
2023-01-17T04:49:29.247Z,7.32
2023-01-17T04:54:30.762Z,6.84
2023-01-17T04:59:35.021Z,7.12
2023-01-17T05:04:36.568Z,6.98
2023-01-17T05:09:38.043Z,7.05
2023-01-17T05:14:39.674Z,7.23
2023-01-17T05:19:41.174Z,7.12
2023-01-17T05:24:47.460Z,6.15
2023-01-17T05:29:48.942Z,6.54
2023-01-17T05:34:50.512Z,6.65
2023-01-17T05:39:52.086Z,6.07
2023-01-17T05:44:53.662Z,5.53
2023-01-17T05:49:55.098Z,5.58
2023-01-17T05:54:56.593Z,5.58
2023-01-17T05:59:58.132Z,5.15
2023-01-17T06:05:01.330Z,5.01
2023-01-17T06:10:05.401Z,5.13
2023-01-17T06:15:07.776Z,5.27
2023-01-17T06:20:10.969Z,5.30
2023-01-17T06:25:12.559Z,5.13
2023-01-17T06:30:14.275Z,5.24
2023-01-17T06:35:15.797Z,5.20
2023-01-17T06:40:17.754Z,5.11
2023-01-17T06:45:19.992Z,5.22
2023-01-17T06:50:21.827Z,4.96
2023-01-17T06:55:24.567Z,4.88
2023-01-17T07:00:27.306Z,4.79
2023-01-17T07:05:29.338Z,5.15
2023-01-17T07:10:30.908Z,4.85
2023-01-17T07:15:32.371Z,4.91
2023-01-17T07:20:33.895Z,5.04
2023-01-17T07:25:35.356Z,5.10
2023-01-17T07:30:36.882Z,5.07
2023-01-17T07:35:38.492Z,5.14
2023-01-17T07:40:42.354Z,5.49
2023-01-17T07:45:49.364Z,5.48
2023-01-17T07:50:59.901Z,5.30
2023-01-17T07:56:06.569Z,5.11
2023-01-17T08:01:10.914Z,4.71
2023-01-17T08:06:23.618Z,4.94
2023-01-17T08:11:25.935Z,5.41
2023-01-17T08:16:27.835Z,5.52
2023-01-17T08:21:29.372Z,5.67
2023-01-17T08:26:30.916Z,5.85
2023-01-17T08:31:35.011Z,6.00
2023-01-17T08:36:36.599Z,6.04
2023-01-17T08:41:38.598Z,6.31
2023-01-17T08:46:40.411Z,5.45
2023-01-17T08:51:41.853Z,5.76
2023-01-17T08:56:43.309Z,5.58
2023-01-17T09:01:45.003Z,5.59
2023-01-17T09:06:46.626Z,5.93
2023-01-17T09:11:48.162Z,5.75
2023-01-17T09:16:49.698Z,6.06
2023-01-17T09:21:51.306Z,6.26
2023-01-17T09:26:52.970Z,6.13
2023-01-17T09:31:54.478Z,6.52
2023-01-17T09:36:56.224Z,6.65
2023-01-17T09:42:20.588Z,6.92
2023-01-17T09:47:40.439Z,6.92
2023-01-17T09:52:42.045Z,6.84
2023-01-17T09:58:02.242Z,6.99
2023-01-17T10:03:09.832Z,6.84
2023-01-17T10:08:17.563Z,6.70
2023-01-17T10:13:42.027Z,6.96
2023-01-17T10:18:58.412Z,6.74
2023-01-17T10:24:09.208Z,6.83
2023-01-17T10:29:16.724Z,6.87
2023-01-17T10:34:27.156Z,6.97
2023-01-17T10:39:30.943Z,6.94
2023-01-17T10:44:59.286Z,7.15
2023-01-17T10:50:03.532Z,7.16
2023-01-17T10:55:16.863Z,7.23
2023-01-17T11:00:40.509Z,7.21
2023-01-17T11:05:43.346Z,7.30
2023-01-17T11:10:48.704Z,7.37
2023-01-17T11:15:54.277Z,7.38
2023-01-17T11:21:18.563Z,7.60
2023-01-17T11:26:25.091Z,7.68
2023-01-17T11:31:27.222Z,7.32
2023-01-17T11:36:30.729Z,7.47
2023-01-17T11:41:41.561Z,7.72
2023-01-17T11:46:43.062Z,7.76
2023-01-17T11:51:44.656Z,8.14
2023-01-17T11:56:46.437Z,8.50
2023-01-17T12:01:57.595Z,8.58
2023-01-17T12:07:10.787Z,8.63
2023-01-17T12:12:27.752Z,8.92
2023-01-17T12:17:48.516Z,8.73
2023-01-17T12:23:21.016Z,8.90
2023-01-17T12:28:46.331Z,8.89
2023-01-17T12:33:55.452Z,8.90
2023-01-17T12:39:00.969Z,8.98
2023-01-17T12:44:02.451Z,9.05
2023-01-17T12:49:34.745Z,9.13
2023-01-17T12:54:44.319Z,8.88
2023-01-17T12:59:48.606Z,8.91
2023-01-17T13:05:15.504Z,8.97
2023-01-17T13:10:31.809Z,9.35
2023-01-17T13:15:39.841Z,9.43
2023-01-17T13:20:44.283Z,9.34
2023-01-17T13:25:49.826Z,9.27
2023-01-17T13:31:10.093Z,9.50
2023-01-17T13:36:30.651Z,9.47
2023-01-17T13:41:54.422Z,9.50
2023-01-17T13:47:18.714Z,9.50
2023-01-17T13:52:20.219Z,9.55
2023-01-17T13:57:24.483Z,9.05
2023-01-17T14:02:32.081Z,9.21
2023-01-17T14:07:36.021Z,9.44
2023-01-17T14:12:38.851Z,9.42
2023-01-17T14:17:52.737Z,9.05
2023-01-17T14:23:01.510Z,9.30
2023-01-17T14:28:21.436Z,9.10
2023-01-17T14:33:28.563Z,9.70
2023-01-17T14:38:32.340Z,9.44
2023-01-17T14:43:37.621Z,9.41
2023-01-17T14:48:40.536Z,9.38
2023-01-17T14:53:52.857Z,9.39
2023-01-17T14:59:21.529Z,9.39
2023-01-17T15:04:28.113Z,9.46
2023-01-17T15:09:35.975Z,9.34
2023-01-17T15:14:42.640Z,9.37
2023-01-17T15:19:46.853Z,9.30
2023-01-17T15:24:49.430Z,9.26
2023-01-17T15:29:51.701Z,9.09
2023-01-17T15:34:53.556Z,9.09
2023-01-17T15:40:21.521Z,9.03
2023-01-17T15:45:29.683Z,8.80
2023-01-17T15:50:32.062Z,8.93
2023-01-17T15:55:39.019Z,8.88
2023-01-17T16:00:40.623Z,8.82
2023-01-17T16:05:42.192Z,8.74
2023-01-17T16:10:44.439Z,8.69
2023-01-17T16:15:45.970Z,8.67
2023-01-17T16:20:51.535Z,8.58
2023-01-17T16:25:52.990Z,8.24
2023-01-17T16:30:54.476Z,8.50
2023-01-17T16:35:56.278Z,8.51
2023-01-17T16:40:57.812Z,8.33
2023-01-17T16:45:59.520Z,8.38
2023-01-17T16:51:05.917Z,8.32
2023-01-17T16:56:13.698Z,8.32
2023-01-17T17:01:16.933Z,8.26
2023-01-17T17:06:18.717Z,8.22
2023-01-17T17:11:22.264Z,7.71
2023-01-17T17:16:26.373Z,7.58
2023-01-17T17:21:28.927Z,7.57
2023-01-17T17:26:33.917Z,7.66
2023-01-17T17:31:35.392Z,7.71
2023-01-17T17:36:37.886Z,7.64
2023-01-17T17:41:42.472Z,7.67
2023-01-17T17:46:44.030Z,7.75
2023-01-17T17:51:45.932Z,7.79
2023-01-17T17:56:47.580Z,7.91
2023-01-17T18:01:49.181Z,7.92
2023-01-17T18:06:50.736Z,8.12
2023-01-17T18:11:52.311Z,7.85
2023-01-17T18:16:53.825Z,7.88
2023-01-17T18:21:55.377Z,7.78
2023-01-17T18:26:57.858Z,7.66
2023-01-17T18:31:59.335Z,7.59
2023-01-17T18:37:01.022Z,7.58
2023-01-17T18:42:02.573Z,7.59
2023-01-17T18:47:04.100Z,7.44
2023-01-17T18:52:05.629Z,7.30
2023-01-17T18:57:07.076Z,7.26
2023-01-17T19:02:09.258Z,7.40
2023-01-17T19:07:12.639Z,7.31
2023-01-17T19:12:14.211Z,7.26
2023-01-17T19:17:15.645Z,7.38
2023-01-17T19:22:17.094Z,7.38
2023-01-17T19:27:18.515Z,7.54
2023-01-17T19:32:20.006Z,7.50
2023-01-17T19:37:21.534Z,7.22
2023-01-17T19:42:23.034Z,7.34
2023-01-17T19:47:24.535Z,7.68
2023-01-17T19:52:26.062Z,7.73
2023-01-17T19:57:30.384Z,7.71
2023-01-17T20:02:32.135Z,7.95
2023-01-17T20:07:33.737Z,8.16
2023-01-17T20:12:35.195Z,8.05
2023-01-17T20:17:36.791Z,7.97
2023-01-17T20:22:45.680Z,7.71
2023-01-17T20:27:47.216Z,7.31
2023-01-17T20:32:48.741Z,7.50
2023-01-17T20:37:53.230Z,7.66
2023-01-17T20:42:54.717Z,8.07
2023-01-17T20:47:56.467Z,7.97
2023-01-17T20:52:58.076Z,7.74
2023-01-17T20:57:59.832Z,7.48
2023-01-17T21:03:01.350Z,7.06
2023-01-17T21:08:02.880Z,7.04
2023-01-17T21:13:04.372Z,6.80
2023-01-17T21:18:05.977Z,6.70
2023-01-17T21:23:07.570Z,6.09
2023-01-17T21:28:09.079Z,6.00
2023-01-17T21:33:10.573Z,5.80
2023-01-17T21:38:12.649Z,6.03
2023-01-17T21:43:15.029Z,6.23
2023-01-17T21:48:16.532Z,6.19
2023-01-17T21:53:18.055Z,6.22
2023-01-17T21:58:19.704Z,6.08
2023-01-17T22:03:21.232Z,6.07
2023-01-17T22:08:22.717Z,6.12
2023-01-17T22:13:24.216Z,6.11
2023-01-17T22:18:25.911Z,6.12
2023-01-17T22:23:27.352Z,5.94
2023-01-17T22:28:30.801Z,5.76
2023-01-17T22:33:32.361Z,5.82
2023-01-17T22:38:34.483Z,5.80
2023-01-17T22:43:41.536Z,5.79
2023-01-17T22:48:43.084Z,5.81
2023-01-17T22:53:49.897Z,5.85
2023-01-17T22:58:51.356Z,5.67
2023-01-17T23:03:57.361Z,5.45
2023-01-17T23:09:01.253Z,5.30
2023-01-17T23:14:02.685Z,5.28
2023-01-17T23:19:04.132Z,5.41
2023-01-17T23:24:05.878Z,5.29
2023-01-17T23:29:07.417Z,5.29
2023-01-17T23:34:08.891Z,5.28
2023-01-17T23:39:10.350Z,5.27
2023-01-17T23:44:11.781Z,5.07
2023-01-17T23:49:13.302Z,4.93
2023-01-17T23:54:14.787Z,4.97
2023-01-17T23:59:16.387Z,4.64
